메인 페이지
METAR-TAF:

METAR-TAF

공항 :

인디라 간디 국제공항

뉴델리, 인도

위도: 28-34N, 경도: 077-07E, 고도: 220m

현재 날씨관측

예보는 23분 전, 20:30시(UTC)에 발표되었습니다.
동남동5kt
온도 28°C
습도 89%
기압 1001 hPa
시정: 3000m
고도 4000ft 상공 구름 조금
고도 10000ft 상공 구름 보통
박무

METAR: VIDP 202030Z 11005KT 3000 BR FEW040 SCT100 28/26 Q1001 NOSIG

시각: 02:23 (20:53 UTC)

예보

예보는 53분 전, 20:00시(UTC)에 발표되었습니다.
예보 대상 시간: 20일 21시부터 21일 06시까지 (UTC)
동남동5kt
시정: 2500m
고도 4000ft 상공 구름 조금
고도 10000ft 상공 구름 보통
박무
일시적
20일 22시부터 21일 04시까지 (UTC)
시정: 1500m
고도 3500ft 상공 구름 조금, 적란운.
고도 9000ft 상공 구름 많음
뇌우, 비
전환 중
21일 05시부터 21일 06시까지 (UTC)
동남동6kt
시정: 3000m
연무

TAF: VIDP 202000Z 2021/2106 12005KT 2500 BR FEW040 SCT100 TEMPO 2022/2104 1500 TSRA FEW035CB BKN090 BECMG 2105/2106 12006KT 3000 HZ

4,000개 이상의 공항 관측 자료 및 예보 (METAR 및 TAF 보고).

지도상에서 검색 가능한 기상관측소가 노란 점과 빨간 점으로 표시되어 있습니다.

기상관측소 명을 보려면 표시 위로 마우스를 이동하세요.

날씨 관측과 예보를 보려면 클릭하세요.

지도 변경 : 확대하려면 엑스 표시가 있는 녹색 버튼, 축소하려면 빼기 표시가 있는 녹색 버튼, 다음 페이지의 지도를 보려면 녹색 화살표를 클릭하세요.


METAR-TAF: